sensor_id;sensor_type;location;lat;lon;timestamp;pressure;altitude;pressure_sealevel;temperature;humidity
69982;BME280;57319;56.274;43.980;2023-04-09T00:01:58;100951.34;;;2.48;40.95
69982;BME280;57319;56.274;43.980;2023-04-09T00:04:24;100951.34;;;2.48;41.09
69982;BME280;57319;56.274;43.980;2023-04-09T00:06:50;100949.56;;;2.46;40.61
69982;BME280;57319;56.274;43.980;2023-04-09T00:09:15;100952.19;;;2.47;40.52
69982;BME280;57319;56.274;43.980;2023-04-09T00:11:41;100946.22;;;2.47;41.00
69982;BME280;57319;56.274;43.980;2023-04-09T00:14:06;100948.66;;;2.44;40.63
69982;BME280;57319;56.274;43.980;2023-04-09T00:16:32;100954.53;;;2.43;40.72
69982;BME280;57319;56.274;43.980;2023-04-09T00:18:58;100946.00;;;2.41;41.18
69982;BME280;57319;56.274;43.980;2023-04-09T00:21:23;100945.94;;;2.39;40.93
69982;BME280;57319;56.274;43.980;2023-04-09T00:23:49;100947.66;;;2.40;40.76
69982;BME280;57319;56.274;43.980;2023-04-09T00:26:15;100944.31;;;2.41;41.04
69982;BME280;57319;56.274;43.980;2023-04-09T00:28:40;100951.13;;;2.42;40.41
69982;BME280;57319;56.274;43.980;2023-04-09T00:31:06;100951.19;;;2.44;40.53
69982;BME280;57319;56.274;43.980;2023-04-09T00:33:31;100952.88;;;2.43;39.92
69982;BME280;57319;56.274;43.980;2023-04-09T00:35:57;100943.50;;;2.42;39.71
69982;BME280;57319;56.274;43.980;2023-04-09T00:38:23;100946.28;;;2.48;39.50
69982;BME280;57319;56.274;43.980;2023-04-09T00:40:49;100952.47;;;2.55;39.00
69982;BME280;57319;56.274;43.980;2023-04-09T00:43:15;100940.69;;;2.57;38.99
69982;BME280;57319;56.274;43.980;2023-04-09T00:45:43;100944.94;;;2.58;39.01
69982;BME280;57319;56.274;43.980;2023-04-09T00:48:09;100939.81;;;2.57;39.13
69982;BME280;57319;56.274;43.980;2023-04-09T00:50:36;100951.63;;;2.54;39.45
69982;BME280;57319;56.274;43.980;2023-04-09T00:53:01;100946.31;;;2.50;39.63
69982;BME280;57319;56.274;43.980;2023-04-09T00:55:28;100949.56;;;2.46;39.21
69982;BME280;57319;56.274;43.980;2023-04-09T00:57:54;100946.16;;;2.45;39.38
69982;BME280;57319;56.274;43.980;2023-04-09T01:00:20;100946.09;;;2.44;39.43
69982;BME280;57319;56.274;43.980;2023-04-09T01:02:46;100944.31;;;2.41;39.33
69982;BME280;57319;56.274;43.980;2023-04-09T01:05:12;100949.28;;;2.38;39.13
69982;BME280;57319;56.274;43.980;2023-04-09T01:13:12;100947.97;;;2.27;40.93
69982;BME280;57319;56.274;43.980;2023-04-09T01:15:48;100946.97;;;2.23;40.92
69982;BME280;57319;56.274;43.980;2023-04-09T01:21:01;100948.41;;;2.16;41.77
69982;BME280;57319;56.274;43.980;2023-04-09T01:28:50;100953.66;;;2.00;42.63
69982;BME280;57319;56.274;43.980;2023-04-09T01:31:19;100945.81;;;1.94;42.26
69982;BME280;57319;56.274;43.980;2023-04-09T01:33:46;100946.59;;;1.93;42.21
69982;BME280;57319;56.274;43.980;2023-04-09T01:36:12;100952.41;;;1.90;42.69
69982;BME280;57319;56.274;43.980;2023-04-09T01:38:41;100951.41;;;1.86;42.71
69982;BME280;57319;56.274;43.980;2023-04-09T01:41:13;100952.91;;;1.81;43.18
69982;BME280;57319;56.274;43.980;2023-04-09T01:43:39;100948.56;;;1.79;43.92
69982;BME280;57319;56.274;43.980;2023-04-09T01:46:07;100953.44;;;1.74;43.54
69982;BME280;57319;56.274;43.980;2023-04-09T01:48:33;100954.03;;;1.68;44.29
69982;BME280;57319;56.274;43.980;2023-04-09T01:50:59;100942.91;;;1.65;44.51
69982;BME280;57319;56.274;43.980;2023-04-09T01:53:24;100956.28;;;1.61;44.18
69982;BME280;57319;56.274;43.980;2023-04-09T01:55:54;100953.56;;;1.58;43.78
69982;BME280;57319;56.274;43.980;2023-04-09T01:58:21;100957.72;;;1.56;43.67
69982;BME280;57319;56.274;43.980;2023-04-09T02:00:48;100955.88;;;1.51;43.55
69982;BME280;57319;56.274;43.980;2023-04-09T02:03:21;100960.00;;;1.49;42.90
69982;BME280;57319;56.274;43.980;2023-04-09T02:06:02;100953.19;;;1.48;43.40
69982;BME280;57319;56.274;43.980;2023-04-09T02:08:30;100959.06;;;1.47;43.68
69982;BME280;57319;56.274;43.980;2023-04-09T02:10:59;100953.03;;;1.45;43.54
69982;BME280;57319;56.274;43.980;2023-04-09T02:13:29;100959.81;;;1.45;44.14
69982;BME280;57319;56.274;43.980;2023-04-09T02:15:57;100962.28;;;1.43;43.94
69982;BME280;57319;56.274;43.980;2023-04-09T02:18:25;100963.06;;;1.42;44.56
69982;BME280;57319;56.274;43.980;2023-04-09T02:20:52;100962.94;;;1.39;45.61
69982;BME280;57319;56.274;43.980;2023-04-09T02:23:20;100956.91;;;1.37;46.11
69982;BME280;57319;56.274;43.980;2023-04-09T02:25:45;100960.94;;;1.32;46.12
69982;BME280;57319;56.274;43.980;2023-04-09T02:28:11;100954.00;;;1.28;46.26
69982;BME280;57319;56.274;43.980;2023-04-09T02:30:37;100956.44;;;1.26;46.18
69982;BME280;57319;56.274;43.980;2023-04-09T02:33:03;100957.19;;;1.24;45.57
69982;BME280;57319;56.274;43.980;2023-04-09T02:35:28;100958.97;;;1.26;45.88
69982;BME280;57319;56.274;43.980;2023-04-09T02:37:54;100958.13;;;1.26;45.57
69982;BME280;57319;56.274;43.980;2023-04-09T02:40:20;100954.72;;;1.25;45.44
69982;BME280;57319;56.274;43.980;2023-04-09T02:42:45;100961.50;;;1.26;45.04
69982;BME280;57319;56.274;43.980;2023-04-09T02:45:11;100957.31;;;1.27;45.43
69982;BME280;57319;56.274;43.980;2023-04-09T02:47:36;100952.31;;;1.28;45.37
69982;BME280;57319;56.274;43.980;2023-04-09T02:50:03;100949.78;;;1.28;45.76
69982;BME280;57319;56.274;43.980;2023-04-09T02:52:29;100955.88;;;1.32;46.09
69982;BME280;57319;56.274;43.980;2023-04-09T02:54:54;100955.94;;;1.33;45.35
69982;BME280;57319;56.274;43.980;2023-04-09T02:57:20;100956.84;;;1.35;45.01
69982;BME280;57319;56.274;43.980;2023-04-09T02:59:45;100959.53;;;1.39;45.57
69982;BME280;57319;56.274;43.980;2023-04-09T03:02:11;100960.47;;;1.41;46.06
69982;BME280;57319;56.274;43.980;2023-04-09T03:04:37;100956.25;;;1.41;47.10
69982;BME280;57319;56.274;43.980;2023-04-09T03:07:03;100958.00;;;1.42;47.00
69982;BME280;57319;56.274;43.980;2023-04-09T03:09:29;100950.38;;;1.42;47.72
69982;BME280;57319;56.274;43.980;2023-04-09T03:11:56;100958.94;;;1.44;47.65
69982;BME280;57319;56.274;43.980;2023-04-09T03:14:23;100958.13;;;1.45;47.81
69982;BME280;57319;56.274;43.980;2023-04-09T03:16:49;100954.91;;;1.49;47.74
69982;BME280;57319;56.274;43.980;2023-04-09T03:19:14;100949.22;;;1.55;47.54
69982;BME280;57319;56.274;43.980;2023-04-09T03:21:41;100943.59;;;1.61;47.55
69982;BME280;57319;56.274;43.980;2023-04-09T03:24:06;100951.50;;;1.68;46.96
69982;BME280;57319;56.274;43.980;2023-04-09T03:26:32;100961.19;;;1.77;46.55
69982;BME280;57319;56.274;43.980;2023-04-09T03:29:04;100956.47;;;1.86;45.96
69982;BME280;57319;56.274;43.980;2023-04-09T03:31:33;100956.94;;;1.97;45.93
69982;BME280;57319;56.274;43.980;2023-04-09T03:33:58;100959.06;;;2.08;45.87
69982;BME280;57319;56.274;43.980;2023-04-09T03:36:24;100950.03;;;2.14;46.01
69982;BME280;57319;56.274;43.980;2023-04-09T03:38:52;100952.91;;;2.24;45.59
69982;BME280;57319;56.274;43.980;2023-04-09T03:41:17;100954.16;;;2.33;45.39
69982;BME280;57319;56.274;43.980;2023-04-09T03:43:43;100950.25;;;2.42;45.82
69982;BME280;57319;56.274;43.980;2023-04-09T03:48:38;100942.50;;;2.60;45.94
69982;BME280;57319;56.274;43.980;2023-04-09T03:51:03;100947.16;;;2.71;45.47
69982;BME280;57319;56.274;43.980;2023-04-09T03:53:30;100944.97;;;2.81;44.92
69982;BME280;57319;56.274;43.980;2023-04-09T03:55:55;100943.69;;;2.92;44.43
69982;BME280;57319;56.274;43.980;2023-04-09T03:58:21;100940.75;;;3.04;44.25
69982;BME280;57319;56.274;43.980;2023-04-09T04:00:46;100943.66;;;3.13;43.93
69982;BME280;57319;56.274;43.980;2023-04-09T04:03:13;100944.16;;;3.27;43.76
69982;BME280;57319;56.274;43.980;2023-04-09T04:05:40;100940.31;;;3.38;43.31
69982;BME280;57319;56.274;43.980;2023-04-09T04:08:06;100938.13;;;3.49;42.61
69982;BME280;57319;56.274;43.980;2023-04-09T04:10:33;100940.22;;;3.61;42.82
69982;BME280;57319;56.274;43.980;2023-04-09T04:12:58;100943.84;;;3.68;43.93
69982;BME280;57319;56.274;43.980;2023-04-09T04:15:26;100941.53;;;3.74;44.29
69982;BME280;57319;56.274;43.980;2023-04-09T04:17:52;100944.28;;;3.80;43.15
69982;BME280;57319;56.274;43.980;2023-04-09T04:20:18;100941.19;;;3.89;42.26
69982;BME280;57319;56.274;43.980;2023-04-09T04:22:43;100937.34;;;4.02;42.19
69982;BME280;57319;56.274;43.980;2023-04-09T04:25:09;100937.66;;;4.11;42.02
69982;BME280;57319;56.274;43.980;2023-04-09T04:27:35;100932.78;;;4.19;41.01
69982;BME280;57319;56.274;43.980;2023-04-09T04:30:00;100937.44;;;4.31;40.79
69982;BME280;57319;56.274;43.980;2023-04-09T04:32:27;100933.53;;;4.42;40.08
69982;BME280;57319;56.274;43.980;2023-04-09T04:34:52;100920.19;;;4.49;39.86
69982;BME280;57319;56.274;43.980;2023-04-09T04:37:18;100933.31;;;4.62;39.72
69982;BME280;57319;56.274;43.980;2023-04-09T04:39:44;100926.78;;;4.71;39.29
69982;BME280;57319;56.274;43.980;2023-04-09T04:42:10;100926.22;;;4.82;38.35
69982;BME280;57319;56.274;43.980;2023-04-09T04:44:35;100927.41;;;4.93;37.59
69982;BME280;57319;56.274;43.980;2023-04-09T04:47:01;100928.56;;;5.03;37.43
69982;BME280;57319;56.274;43.980;2023-04-09T04:49:26;100927.16;;;5.14;37.34
69982;BME280;57319;56.274;43.980;2023-04-09T04:51:52;100930.72;;;5.19;37.38
69982;BME280;57319;56.274;43.980;2023-04-09T04:54:18;100929.16;;;5.24;37.50
69982;BME280;57319;56.274;43.980;2023-04-09T04:56:43;100936.22;;;5.33;36.75
69982;BME280;57319;56.274;43.980;2023-04-09T04:59:09;100929.63;;;5.41;35.94
69982;BME280;57319;56.274;43.980;2023-04-09T05:01:35;100934.06;;;5.49;35.80
69982;BME280;57319;56.274;43.980;2023-04-09T05:04:00;100931.66;;;5.55;35.81
69982;BME280;57319;56.274;43.980;2023-04-09T05:06:27;100936.94;;;5.61;35.19
69982;BME280;57319;56.274;43.980;2023-04-09T05:08:54;100937.97;;;5.68;34.96
69982;BME280;57319;56.274;43.980;2023-04-09T05:11:25;100932.97;;;5.72;34.45
69982;BME280;57319;56.274;43.980;2023-04-09T05:13:51;100939.09;;;5.77;34.54
69982;BME280;57319;56.274;43.980;2023-04-09T05:16:19;100940.94;;;5.83;34.07
69982;BME280;57319;56.274;43.980;2023-04-09T05:18:46;100937.66;;;5.89;33.70
69982;BME280;57319;56.274;43.980;2023-04-09T05:21:12;100938.66;;;5.94;33.35
69982;BME280;57319;56.274;43.980;2023-04-09T05:23:37;100939.78;;;6.04;33.11
69982;BME280;57319;56.274;43.980;2023-04-09T05:26:03;100935.66;;;6.09;33.31
69982;BME280;57319;56.274;43.980;2023-04-09T05:28:29;100934.06;;;6.14;33.54
69982;BME280;57319;56.274;43.980;2023-04-09T05:30:54;100929.94;;;6.21;32.76
69982;BME280;57319;56.274;43.980;2023-04-09T05:33:20;100936.22;;;6.34;32.57
69982;BME280;57319;56.274;43.980;2023-04-09T05:35:46;100932.19;;;6.43;32.65
69982;BME280;57319;56.274;43.980;2023-04-09T05:38:12;100924.72;;;6.51;33.04
69982;BME280;57319;56.274;43.980;2023-04-09T05:40:38;100938.63;;;6.64;32.37
69982;BME280;57319;56.274;43.980;2023-04-09T05:43:04;100936.00;;;6.61;32.18
69982;BME280;57319;56.274;43.980;2023-04-09T05:45:30;100944.53;;;6.61;31.95
69982;BME280;57319;56.274;43.980;2023-04-09T05:47:56;100935.88;;;6.56;31.44
69982;BME280;57319;56.274;43.980;2023-04-09T05:50:21;100936.00;;;6.61;31.72
69982;BME280;57319;56.274;43.980;2023-04-09T05:52:47;100946.31;;;6.64;31.78
69982;BME280;57319;56.274;43.980;2023-04-09T05:55:13;100942.16;;;6.69;31.81
69982;BME280;57319;56.274;43.980;2023-04-09T05:57:38;100940.63;;;6.77;32.05
69982;BME280;57319;56.274;43.980;2023-04-09T06:00:05;100944.38;;;6.93;32.49
69982;BME280;57319;56.274;43.980;2023-04-09T06:02:30;100949.75;;;7.06;32.30
69982;BME280;57319;56.274;43.980;2023-04-09T06:04:56;100939.66;;;7.12;31.47
69982;BME280;57319;56.274;43.980;2023-04-09T06:07:22;100942.41;;;7.21;32.30
69982;BME280;57319;56.274;43.980;2023-04-09T06:09:47;100944.25;;;7.30;32.13
69982;BME280;57319;56.274;43.980;2023-04-09T06:12:13;100946.22;;;7.42;31.89
69982;BME280;57319;56.274;43.980;2023-04-09T06:14:39;100947.25;;;7.52;32.21
69982;BME280;57319;56.274;43.980;2023-04-09T06:17:04;100954.19;;;7.57;32.65
69982;BME280;57319;56.274;43.980;2023-04-09T06:19:30;100949.94;;;7.59;32.44
69982;BME280;57319;56.274;43.980;2023-04-09T06:21:56;100948.34;;;7.64;32.23
69982;BME280;57319;56.274;43.980;2023-04-09T06:24:21;100951.84;;;7.70;32.46
69982;BME280;57319;56.274;43.980;2023-04-09T06:26:47;100949.47;;;7.80;32.60
69982;BME280;57319;56.274;43.980;2023-04-09T06:29:13;100960.75;;;7.90;32.22
69982;BME280;57319;56.274;43.980;2023-04-09T06:31:39;100954.91;;;7.99;32.08
69982;BME280;57319;56.274;43.980;2023-04-09T06:34:04;100947.38;;;8.08;31.81
69982;BME280;57319;56.274;43.980;2023-04-09T06:36:31;100951.81;;;8.19;31.50
69982;BME280;57319;56.274;43.980;2023-04-09T06:38:57;100954.56;;;8.29;31.29
69982;BME280;57319;56.274;43.980;2023-04-09T06:41:24;100955.53;;;8.38;31.36
69982;BME280;57319;56.274;43.980;2023-04-09T06:43:51;100953.97;;;8.46;31.17
69982;BME280;57319;56.274;43.980;2023-04-09T06:46:17;100955.91;;;8.59;31.22
69982;BME280;57319;56.274;43.980;2023-04-09T06:48:45;100948.34;;;8.69;30.98
69982;BME280;57319;56.274;43.980;2023-04-09T06:51:11;100945.09;;;8.82;30.87
69982;BME280;57319;56.274;43.980;2023-04-09T06:53:38;100958.13;;;8.94;30.67
69982;BME280;57319;56.274;43.980;2023-04-09T06:56:04;100963.31;;;9.02;30.55
69982;BME280;57319;56.274;43.980;2023-04-09T06:58:29;100954.91;;;9.11;29.12
69982;BME280;57319;56.274;43.980;2023-04-09T07:00:55;100955.88;;;9.22;28.81
69982;BME280;57319;56.274;43.980;2023-04-09T07:03:21;100955.97;;;9.30;28.82
69982;BME280;57319;56.274;43.980;2023-04-09T07:05:46;100958.59;;;9.34;28.84
69982;BME280;57319;56.274;43.980;2023-04-09T07:08:13;100961.28;;;9.44;28.46
69982;BME280;57319;56.274;43.980;2023-04-09T07:10:38;100955.41;;;9.56;28.32
69982;BME280;57319;56.274;43.980;2023-04-09T07:13:04;100953.75;;;9.61;27.67
69982;BME280;57319;56.274;43.980;2023-04-09T07:15:30;100954.59;;;9.63;27.25
69982;BME280;57319;56.274;43.980;2023-04-09T07:17:55;100949.53;;;9.67;26.75
69982;BME280;57319;56.274;43.980;2023-04-09T07:20:22;100949.56;;;9.74;26.65
69982;BME280;57319;56.274;43.980;2023-04-09T07:22:48;100948.75;;;9.78;26.67
69982;BME280;57319;56.274;43.980;2023-04-09T07:25:14;100944.44;;;9.75;26.68
69982;BME280;57319;56.274;43.980;2023-04-09T07:27:40;100946.19;;;9.78;26.65
69982;BME280;57319;56.274;43.980;2023-04-09T07:30:08;100936.78;;;9.80;26.54
69982;BME280;57319;56.274;43.980;2023-04-09T07:32:35;100935.06;;;9.80;25.72
69982;BME280;57319;56.274;43.980;2023-04-09T07:35:02;100932.50;;;9.82;26.11
69982;BME280;57319;56.274;43.980;2023-04-09T07:37:29;100936.00;;;9.89;25.93
69982;BME280;57319;56.274;43.980;2023-04-09T07:39:55;100932.63;;;9.94;26.15
69982;BME280;57319;56.274;43.980;2023-04-09T07:42:21;100936.16;;;10.06;25.91
69982;BME280;57319;56.274;43.980;2023-04-09T07:44:46;100928.41;;;10.02;25.64
69982;BME280;57319;56.274;43.980;2023-04-09T07:47:12;100937.03;;;10.09;26.16
69982;BME280;57319;56.274;43.980;2023-04-09T07:49:37;100937.97;;;10.17;25.74
69982;BME280;57319;56.274;43.980;2023-04-09T07:52:04;100930.25;;;10.19;25.66
69982;BME280;57319;56.274;43.980;2023-04-09T07:54:30;100934.56;;;10.22;25.88
69982;BME280;57319;56.274;43.980;2023-04-09T07:56:56;100933.69;;;10.18;25.75
69982;BME280;57319;56.274;43.980;2023-04-09T07:59:23;100935.38;;;10.13;25.76
69982;BME280;57319;56.274;43.980;2023-04-09T08:01:48;100925.91;;;10.12;25.99
69982;BME280;57319;56.274;43.980;2023-04-09T08:04:14;100928.56;;;10.23;26.32
69982;BME280;57319;56.274;43.980;2023-04-09T08:06:40;100927.75;;;10.27;26.05
69982;BME280;57319;56.274;43.980;2023-04-09T08:09:06;100930.25;;;10.21;26.01
69982;BME280;57319;56.274;43.980;2023-04-09T08:11:32;100929.44;;;10.23;26.06
69982;BME280;57319;56.274;43.980;2023-04-09T08:13:57;100926.00;;;10.24;26.45
69982;BME280;57319;56.274;43.980;2023-04-09T08:16:27;100926.00;;;10.26;25.90
69982;BME280;57319;56.274;43.980;2023-04-09T08:18:55;100922.59;;;10.22;25.33
69982;BME280;57319;56.274;43.980;2023-04-09T08:21:21;100920.88;;;10.29;25.39
69982;BME280;57319;56.274;43.980;2023-04-09T08:23:46;100913.22;;;10.32;24.66
69982;BME280;57319;56.274;43.980;2023-04-09T08:26:12;100908.91;;;10.34;24.96
69982;BME280;57319;56.274;43.980;2023-04-09T08:28:37;100914.06;;;10.31;25.31
69982;BME280;57319;56.274;43.980;2023-04-09T08:31:03;100909.75;;;10.31;25.33
69982;BME280;57319;56.274;43.980;2023-04-09T08:33:29;100908.13;;;10.40;25.12
69982;BME280;57319;56.274;43.980;2023-04-09T08:35:55;100914.22;;;10.52;25.40
69982;BME280;57319;56.274;43.980;2023-04-09T08:38:20;100910.81;;;10.58;25.08
69982;BME280;57319;56.274;43.980;2023-04-09T08:40:46;100906.50;;;10.54;25.33
69982;BME280;57319;56.274;43.980;2023-04-09T08:43:14;100900.53;;;10.63;25.41
69982;BME280;57319;56.274;43.980;2023-04-09T08:45:43;100896.31;;;10.74;25.25
69982;BME280;57319;56.274;43.980;2023-04-09T08:48:09;100898.09;;;10.84;24.82
69982;BME280;57319;56.274;43.980;2023-04-09T08:50:37;100898.94;;;10.85;24.92
69982;BME280;57319;56.274;43.980;2023-04-09T08:53:04;100898.13;;;10.92;25.46
69982;BME280;57319;56.274;43.980;2023-04-09T08:55:31;100902.41;;;10.93;25.12
69982;BME280;57319;56.274;43.980;2023-04-09T08:57:59;100900.72;;;10.97;24.68
69982;BME280;57319;56.274;43.980;2023-04-09T09:00:25;100897.28;;;10.96;24.66
69982;BME280;57319;56.274;43.980;2023-04-09T09:03:05;100892.97;;;10.98;25.01
69982;BME280;57319;56.274;43.980;2023-04-09T09:05:39;100887.88;;;11.09;24.74
69982;BME280;57319;56.274;43.980;2023-04-09T09:08:12;100886.16;;;11.08;23.62
69982;BME280;57319;56.274;43.980;2023-04-09T09:10:43;100885.34;;;11.18;24.38
69982;BME280;57319;56.274;43.980;2023-04-09T09:13:20;100880.22;;;11.31;24.26
69982;BME280;57319;56.274;43.980;2023-04-09T09:15:47;100875.94;;;11.45;25.25
69982;BME280;57319;56.274;43.980;2023-04-09T09:18:16;100887.13;;;11.49;24.10
69982;BME280;57319;56.274;43.980;2023-04-09T09:20:42;100880.25;;;11.42;23.50
69982;BME280;57319;56.274;43.980;2023-04-09T09:23:08;100887.09;;;11.44;23.62
69982;BME280;57319;56.274;43.980;2023-04-09T09:25:40;100878.50;;;11.45;23.80
69982;BME280;57319;56.274;43.980;2023-04-09T09:28:08;100881.94;;;11.41;23.63
69982;BME280;57319;56.274;43.980;2023-04-09T09:30:34;100873.34;;;11.44;23.29
69982;BME280;57319;56.274;43.980;2023-04-09T09:33:08;100872.50;;;11.49;23.65
69982;BME280;57319;56.274;43.980;2023-04-09T09:35:51;100873.38;;;11.51;23.62
69982;BME280;57319;56.274;43.980;2023-04-09T09:38:19;100869.91;;;11.49;23.03
69982;BME280;57319;56.274;43.980;2023-04-09T09:40:45;100872.50;;;11.46;23.47
69982;BME280;57319;56.274;43.980;2023-04-09T09:43:12;100875.94;;;11.51;23.55
69982;BME280;57319;56.274;43.980;2023-04-09T09:45:39;100863.03;;;11.47;23.46
69982;BME280;57319;56.274;43.980;2023-04-09T09:48:09;100867.34;;;11.63;23.49
69982;BME280;57319;56.274;43.980;2023-04-09T09:50:36;100867.38;;;11.80;24.03
69982;BME280;57319;56.274;43.980;2023-04-09T09:53:04;100862.22;;;12.00;23.92
69982;BME280;57319;56.274;43.980;2023-04-09T09:55:37;100861.38;;;12.03;23.47
69982;BME280;57319;56.274;43.980;2023-04-09T09:58:16;100861.34;;;11.92;22.65
69982;BME280;57319;56.274;43.980;2023-04-09T10:00:43;100858.78;;;11.72;22.86
69982;BME280;57319;56.274;43.980;2023-04-09T10:03:19;100857.06;;;11.69;22.92
69982;BME280;57319;56.274;43.980;2023-04-09T10:05:47;100854.47;;;11.59;22.75
69982;BME280;57319;56.274;43.980;2023-04-09T10:08:13;100859.63;;;11.56;22.96
69982;BME280;57319;56.274;43.980;2023-04-09T10:10:40;100858.78;;;11.61;23.35
69982;BME280;57319;56.274;43.980;2023-04-09T10:13:19;100853.59;;;11.66;23.15
69982;BME280;57319;56.274;43.980;2023-04-09T10:15:46;100851.03;;;11.72;22.72
69982;BME280;57319;56.274;43.980;2023-04-09T10:18:14;100848.44;;;11.89;23.08
69982;BME280;57319;56.274;43.980;2023-04-09T10:23:37;100843.28;;;12.20;22.75
69982;BME280;57319;56.274;43.980;2023-04-09T10:26:03;100846.69;;;12.24;22.60
69982;BME280;57319;56.274;43.980;2023-04-09T10:28:30;100842.41;;;12.36;22.37
69982;BME280;57319;56.274;43.980;2023-04-09T10:30:57;100830.28;;;12.43;22.69
69982;BME280;57319;56.274;43.980;2023-04-09T10:33:25;100831.97;;;12.56;22.08
69982;BME280;57319;56.274;43.980;2023-04-09T10:36:02;100836.22;;;12.71;22.25
69982;BME280;57319;56.274;43.980;2023-04-09T10:38:39;100831.88;;;12.83;22.00
69982;BME280;57319;56.274;43.980;2023-04-09T10:41:06;100834.41;;;12.98;22.08
69982;BME280;57319;56.274;43.980;2023-04-09T10:43:34;100826.56;;;13.09;21.75
69982;BME280;57319;56.274;43.980;2023-04-09T10:46:03;100822.00;;;13.51;21.74
69982;BME280;57319;56.274;43.980;2023-04-09T10:48:32;100823.38;;;13.91;21.15
69982;BME280;57319;56.274;43.980;2023-04-09T10:51:01;100820.50;;;14.22;20.82
69982;BME280;57319;56.274;43.980;2023-04-09T10:53:31;100824.13;;;15.42;19.12
69982;BME280;57319;56.274;43.980;2023-04-09T10:55:56;100818.97;;;15.94;18.32
69982;BME280;57319;56.274;43.980;2023-04-09T10:58:22;100807.22;;;16.65;17.84
69982;BME280;57319;56.274;43.980;2023-04-09T11:00:49;100819.00;;;17.21;17.35
69982;BME280;57319;56.274;43.980;2023-04-09T11:08:18;100810.00;;;16.56;17.45
69982;BME280;57319;56.274;43.980;2023-04-09T11:10:46;100805.44;;;15.75;18.25
69982;BME280;57319;56.274;43.980;2023-04-09T11:13:16;100803.97;;;15.58;18.41
69982;BME280;57319;56.274;43.980;2023-04-09T11:15:43;100800.34;;;16.19;17.85
69982;BME280;57319;56.274;43.980;2023-04-09T11:18:13;100804.84;;;16.09;17.84
69982;BME280;57319;56.274;43.980;2023-04-09T11:20:39;100792.03;;;15.50;18.67
69982;BME280;57319;56.274;43.980;2023-04-09T11:23:06;100797.69;;;15.73;18.31
69982;BME280;57319;56.274;43.980;2023-04-09T11:25:32;100791.72;;;15.67;18.39
69982;BME280;57319;56.274;43.980;2023-04-09T11:28:01;100794.22;;;15.71;18.46
69982;BME280;57319;56.274;43.980;2023-04-09T11:30:27;100787.53;;;16.09;17.99
69982;BME280;57319;56.274;43.980;2023-04-09T11:32:53;100790.47;;;16.36;18.14
69982;BME280;57319;56.274;43.980;2023-04-09T11:35:20;100786.16;;;16.77;17.47
69982;BME280;57319;56.274;43.980;2023-04-09T11:37:47;100784.25;;;16.43;18.02
69982;BME280;57319;56.274;43.980;2023-04-09T11:40:20;100778.69;;;17.03;17.11
69982;BME280;57319;56.274;43.980;2023-04-09T11:42:48;100776.88;;;18.41;16.08
69982;BME280;57319;56.274;43.980;2023-04-09T11:45:15;100777.59;;;19.31;15.60
69982;BME280;57319;56.274;43.980;2023-04-09T11:47:42;100769.91;;;19.79;15.13
69982;BME280;57319;56.274;43.980;2023-04-09T11:50:09;100772.34;;;20.10;15.09
69982;BME280;57319;56.274;43.980;2023-04-09T11:52:36;100758.19;;;20.40;14.51
69982;BME280;57319;56.274;43.980;2023-04-09T11:55:06;100766.41;;;20.98;14.11
69982;BME280;57319;56.274;43.980;2023-04-09T11:57:40;100762.53;;;21.29;13.08
69982;BME280;57319;56.274;43.980;2023-04-09T12:00:11;100757.25;;;21.09;13.50
69982;BME280;57319;56.274;43.980;2023-04-09T12:02:43;100761.19;;;20.53;13.79
69982;BME280;57319;56.274;43.980;2023-04-09T12:05:10;100755.09;;;20.98;13.87
69982;BME280;57319;56.274;43.980;2023-04-09T12:07:37;100759.16;;;21.05;13.84
69982;BME280;57319;56.274;43.980;2023-04-09T12:10:05;100757.22;;;20.88;13.87
69982;BME280;57319;56.274;43.980;2023-04-09T12:12:40;100746.41;;;21.18;13.75
69982;BME280;57319;56.274;43.980;2023-04-09T12:15:30;100742.25;;;20.92;13.58
69982;BME280;57319;56.274;43.980;2023-04-09T12:17:56;100744.25;;;20.39;14.16
69982;BME280;57319;56.274;43.980;2023-04-09T12:20:42;100738.72;;;19.24;14.79
69982;BME280;57319;56.274;43.980;2023-04-09T12:23:11;100739.69;;;18.35;15.34
69982;BME280;57319;56.274;43.980;2023-04-09T12:25:41;100742.81;;;17.52;16.34
69982;BME280;57319;56.274;43.980;2023-04-09T12:28:09;100737.66;;;16.76;17.20
69982;BME280;57319;56.274;43.980;2023-04-09T12:30:35;100736.84;;;15.90;17.36
69982;BME280;57319;56.274;43.980;2023-04-09T12:33:02;100737.03;;;15.29;18.29
69982;BME280;57319;56.274;43.980;2023-04-09T12:35:28;100734.94;;;14.97;18.37
69982;BME280;57319;56.274;43.980;2023-04-09T12:37:54;100741.13;;;14.88;18.66
69982;BME280;57319;56.274;43.980;2023-04-09T12:40:20;100737.81;;;14.76;19.06
69982;BME280;57319;56.274;43.980;2023-04-09T12:42:46;100736.03;;;14.80;18.85
69982;BME280;57319;56.274;43.980;2023-04-09T12:45:13;100737.63;;;14.89;19.04
69982;BME280;57319;56.274;43.980;2023-04-09T12:47:39;100735.97;;;14.85;18.53
69982;BME280;57319;56.274;43.980;2023-04-09T12:50:07;100737.06;;;14.68;19.22
69982;BME280;57319;56.274;43.980;2023-04-09T12:52:33;100743.19;;;14.61;18.85
69982;BME280;57319;56.274;43.980;2023-04-09T12:54:59;100740.53;;;14.69;18.44
69982;BME280;57319;56.274;43.980;2023-04-09T12:57:25;100732.88;;;14.58;18.64
69982;BME280;57319;56.274;43.980;2023-04-09T12:59:50;100731.16;;;14.55;18.38
69982;BME280;57319;56.274;43.980;2023-04-09T13:02:17;100724.25;;;14.56;18.51
69982;BME280;57319;56.274;43.980;2023-04-09T13:04:42;100723.47;;;14.49;18.68
69982;BME280;57319;56.274;43.980;2023-04-09T13:07:08;100725.03;;;14.64;18.68
69982;BME280;57319;56.274;43.980;2023-04-09T13:09:33;100722.94;;;14.91;18.43